< < Back
Terminal Aerodrome Forecast


Current Version              Previous Versions:   1  2  3  4  5  6  7  8  9  

Terminal Aerodrome Forecast

175
FTUS44 KBMX 010520
TAFTCL
TAF
KTCL 010520Z 0106/0206 00000KT P6SM SCT250
     FM011500 01005KT P6SM SCT250=

Latest METAR

446
SAUS70 KWBC 020000 RRH
MTRTCL
METAR KTCL 012353Z 05006KT 10SM CLR 29/21 A3004 RMK AO2 SLP170 T02940206
10328 20294 55000


USA.gov is the U.S. government's official web portal to all federal, state and local government web resources and services.